createdAt,value
2022-11-27T00:00:14.106Z,7.00
2022-11-27T00:01:13.063Z,7.40
2022-11-27T00:02:13.031Z,7.60
2022-11-27T00:03:13.479Z,7.40
2022-11-27T00:04:13.486Z,7.50
2022-11-27T00:05:13.549Z,7.50
2022-11-27T00:06:13.448Z,7.50
2022-11-27T00:07:13.580Z,7.50
2022-11-27T00:08:28.636Z,7.60
2022-11-27T00:09:41.630Z,6.90
2022-11-27T00:10:12.759Z,7.00
2022-11-27T00:11:13.727Z,6.80
2022-11-27T00:12:13.641Z,7.20
2022-11-27T00:13:13.465Z,7.20
2022-11-27T00:14:13.567Z,7.10
2022-11-27T00:15:17.083Z,7.10
2022-11-27T00:16:13.612Z,6.80
2022-11-27T00:17:13.867Z,6.70
2022-11-27T00:18:14.178Z,6.70
2022-11-27T00:19:13.093Z,7.00
2022-11-27T00:20:13.203Z,7.00
2022-11-27T00:21:13.248Z,6.70
2022-11-27T00:22:13.226Z,6.90
2022-11-27T00:23:13.131Z,7.10
2022-11-27T00:24:13.068Z,7.10
2022-11-27T00:25:18.290Z,7.20
2022-11-27T00:26:13.326Z,6.80
2022-11-27T00:27:13.409Z,6.80
2022-11-27T00:28:13.291Z,7.10
2022-11-27T00:29:13.217Z,7.30
2022-11-27T00:30:13.666Z,6.90
2022-11-27T00:31:13.887Z,7.10
2022-11-27T00:32:13.247Z,6.90
2022-11-27T00:33:13.495Z,6.80
2022-11-27T00:34:13.442Z,6.70
2022-11-27T00:35:13.490Z,6.60
2022-11-27T00:36:13.559Z,6.30
2022-11-27T00:37:13.630Z,6.40
2022-11-27T00:39:12.963Z,6.30
2022-11-27T00:40:12.858Z,6.70
2022-11-27T00:41:13.920Z,6.80
2022-11-27T00:42:12.884Z,6.50
2022-11-27T00:43:14.150Z,6.70
2022-11-27T00:44:13.105Z,7.00
2022-11-27T00:45:13.107Z,7.10
2022-11-27T00:46:13.130Z,7.20
2022-11-27T00:47:13.282Z,6.80
2022-11-27T00:48:13.258Z,6.80
2022-11-27T00:49:13.269Z,6.80
2022-11-27T00:50:13.388Z,6.80
2022-11-27T00:51:13.462Z,6.90
2022-11-27T00:52:13.630Z,6.90
2022-11-27T00:53:13.468Z,6.60
2022-11-27T00:54:13.489Z,6.70
2022-11-27T00:55:13.727Z,6.60
2022-11-27T00:56:13.904Z,6.50
2022-11-27T00:57:12.750Z,6.70
2022-11-27T00:58:13.785Z,6.60
2022-11-27T00:59:14.053Z,6.20
2022-11-27T01:00:13.108Z,6.40
2022-11-27T01:01:13.282Z,6.60
2022-11-27T01:02:13.194Z,6.40
2022-11-27T01:03:13.429Z,6.40
2022-11-27T01:04:13.486Z,6.50
2022-11-27T01:05:13.371Z,6.70
2022-11-27T01:06:13.342Z,6.50
2022-11-27T01:07:13.255Z,6.50
2022-11-27T01:08:13.270Z,6.50
2022-11-27T01:09:13.303Z,6.50
2022-11-27T01:10:13.359Z,6.50
2022-11-27T01:11:13.252Z,6.40
2022-11-27T01:12:13.607Z,6.70
2022-11-27T01:13:13.598Z,6.50
2022-11-27T01:14:13.517Z,6.40
2022-11-27T01:15:13.629Z,6.50
2022-11-27T01:16:13.997Z,6.40
2022-11-27T01:17:13.155Z,6.30
2022-11-27T01:18:13.173Z,6.60
2022-11-27T01:19:13.008Z,6.60
2022-11-27T01:20:13.308Z,6.50
2022-11-27T01:21:13.731Z,6.70
2022-11-27T01:22:13.627Z,6.40
2022-11-27T01:23:13.908Z,6.60
2022-11-27T01:24:13.255Z,6.30
2022-11-27T01:25:13.206Z,6.30
2022-11-27T01:26:13.521Z,6.40
2022-11-27T01:27:13.515Z,6.60
2022-11-27T01:28:13.538Z,6.40
2022-11-27T01:29:13.414Z,6.50
2022-11-27T01:30:13.444Z,6.30
2022-11-27T01:31:13.423Z,6.30
2022-11-27T01:32:13.508Z,6.60
2022-11-27T01:33:13.755Z,6.70
2022-11-27T01:34:13.937Z,6.50
2022-11-27T01:35:12.841Z,6.40
2022-11-27T01:36:14.151Z,6.50
2022-11-27T01:37:13.499Z,6.40
2022-11-27T01:38:13.359Z,6.50
2022-11-27T01:39:13.226Z,6.70
2022-11-27T01:40:13.123Z,6.60
2022-11-27T01:41:13.050Z,6.40
2022-11-27T01:42:12.947Z,6.70
2022-11-27T01:43:12.936Z,7.00
2022-11-27T01:44:13.056Z,6.80
2022-11-27T01:45:13.031Z,6.30
2022-11-27T01:46:13.163Z,6.40
2022-11-27T01:47:13.240Z,6.00
2022-11-27T01:48:13.129Z,6.40
2022-11-27T01:49:13.225Z,6.30
2022-11-27T01:50:13.194Z,6.40
2022-11-27T01:51:13.182Z,6.60
2022-11-27T01:52:13.338Z,6.30
2022-11-27T01:53:13.388Z,6.30
2022-11-27T01:54:13.495Z,6.30
2022-11-27T01:55:13.689Z,6.20
2022-11-27T01:56:13.712Z,6.50
2022-11-27T01:57:13.561Z,6.50
2022-11-27T01:58:13.642Z,6.60
2022-11-27T01:59:13.589Z,6.70
2022-11-27T02:00:13.540Z,6.70
2022-11-27T02:01:13.649Z,6.60
2022-11-27T02:02:13.971Z,6.90
2022-11-27T02:03:18.541Z,6.50
2022-11-27T02:04:29.129Z,6.50
2022-11-27T02:05:22.277Z,6.80
2022-11-27T02:06:13.535Z,6.70
2022-11-27T02:07:13.517Z,6.90
2022-11-27T02:08:13.534Z,7.00
2022-11-27T02:09:13.753Z,6.80
2022-11-27T02:10:13.886Z,6.90
2022-11-27T02:11:22.117Z,6.50
2022-11-27T02:12:13.419Z,6.20
2022-11-27T02:13:14.160Z,6.20
2022-11-27T02:14:13.458Z,6.10
2022-11-27T02:15:13.538Z,6.10
2022-11-27T02:16:17.826Z,6.40
2022-11-27T02:17:13.642Z,6.30
2022-11-27T02:18:14.400Z,6.00
2022-11-27T02:19:13.662Z,5.70
2022-11-27T02:20:13.726Z,5.90
2022-11-27T02:21:13.900Z,6.10
2022-11-27T02:22:14.013Z,6.10
2022-11-27T02:23:13.255Z,5.90
2022-11-27T02:24:13.682Z,6.00
2022-11-27T02:25:14.081Z,5.70
2022-11-27T02:26:13.004Z,5.80
2022-11-27T02:27:13.187Z,5.70
2022-11-27T02:28:13.210Z,5.80
2022-11-27T02:29:13.123Z,5.60
2022-11-27T02:30:18.278Z,5.50
2022-11-27T02:31:13.808Z,6.10
2022-11-27T02:32:14.007Z,6.30
2022-11-27T02:33:13.421Z,6.30
2022-11-27T02:34:14.282Z,6.20
2022-11-27T02:35:13.436Z,6.30
2022-11-27T02:36:13.783Z,6.40
2022-11-27T02:37:13.962Z,6.20
2022-11-27T02:38:13.120Z,6.30
2022-11-27T02:39:13.116Z,6.20
2022-11-27T02:40:13.520Z,6.20
2022-11-27T02:41:13.856Z,6.20
2022-11-27T02:42:14.059Z,6.20
2022-11-27T02:43:23.383Z,6.40
2022-11-27T02:44:13.768Z,6.30
2022-11-27T02:45:14.277Z,6.20
2022-11-27T02:46:14.175Z,6.20
2022-11-27T02:47:13.277Z,6.50
2022-11-27T02:48:13.581Z,6.40
2022-11-27T02:49:13.658Z,6.30
2022-11-27T02:50:13.522Z,6.20
2022-11-27T02:51:13.527Z,6.40
2022-11-27T02:52:13.740Z,6.30
2022-11-27T02:53:13.680Z,6.30
2022-11-27T02:54:13.653Z,6.40
2022-11-27T02:55:36.003Z,6.40
2022-11-27T02:56:13.489Z,6.50
2022-11-27T02:57:13.327Z,6.30
2022-11-27T02:58:13.690Z,6.20
2022-11-27T02:59:13.823Z,6.00
2022-11-27T03:00:13.933Z,6.10
2022-11-27T03:01:12.933Z,6.20
2022-11-27T03:02:12.884Z,6.10
2022-11-27T03:03:18.383Z,6.20
2022-11-27T03:04:13.473Z,6.00
2022-11-27T03:05:13.683Z,6.00
2022-11-27T03:06:13.842Z,5.80
2022-11-27T03:07:13.976Z,5.90
2022-11-27T03:08:13.317Z,5.90
2022-11-27T03:09:13.391Z,5.90
2022-11-27T03:10:13.458Z,5.80
2022-11-27T03:11:13.947Z,6.00
2022-11-27T03:12:12.957Z,6.10
2022-11-27T03:13:13.201Z,5.90
2022-11-27T03:14:13.187Z,6.10
2022-11-27T03:15:26.555Z,6.20
2022-11-27T03:16:19.015Z,6.20
2022-11-27T03:17:56.168Z,6.20
2022-11-27T03:18:18.931Z,6.20
2022-11-27T03:19:13.050Z,6.00
2022-11-27T03:20:13.354Z,6.10
2022-11-27T03:21:13.435Z,5.90
2022-11-27T03:22:13.573Z,6.10
2022-11-27T03:23:40.522Z,6.30
2022-11-27T03:24:13.850Z,6.30
2022-11-27T03:25:14.196Z,6.30
2022-11-27T03:26:18.647Z,6.10
2022-11-27T03:27:28.816Z,6.10
2022-11-27T03:28:18.224Z,6.20
2022-11-27T03:29:33.485Z,6.40
2022-11-27T03:30:38.612Z,6.20
2022-11-27T03:31:13.543Z,6.20
2022-11-27T03:32:13.728Z,6.30
2022-11-27T03:33:13.812Z,6.40
2022-11-27T03:34:13.930Z,6.40
2022-11-27T03:35:14.242Z,6.40
2022-11-27T03:36:13.133Z,6.30
2022-11-27T03:37:13.437Z,6.30
2022-11-27T03:38:13.411Z,6.50
2022-11-27T03:39:13.554Z,6.40
2022-11-27T03:40:13.719Z,6.60
2022-11-27T03:41:14.185Z,6.90
2022-11-27T03:42:13.288Z,6.50
2022-11-27T03:43:13.447Z,6.70
2022-11-27T03:44:13.514Z,6.50
2022-11-27T03:45:13.589Z,6.50
2022-11-27T03:46:13.928Z,6.50
2022-11-27T03:47:13.079Z,6.70
2022-11-27T03:48:13.584Z,6.90
2022-11-27T03:49:13.648Z,6.70
2022-11-27T03:50:13.791Z,6.80
2022-11-27T03:51:14.086Z,6.80
2022-11-27T03:52:13.058Z,6.90
2022-11-27T03:53:12.990Z,6.70
2022-11-27T03:54:13.249Z,6.80
2022-11-27T03:55:13.685Z,6.80
2022-11-27T03:56:13.769Z,6.80
2022-11-27T03:57:13.671Z,7.10
2022-11-27T03:58:13.951Z,6.90
2022-11-27T03:59:13.384Z,7.10
2022-11-27T04:00:13.363Z,7.10
2022-11-27T04:01:18.723Z,7.30
2022-11-27T04:02:13.787Z,6.80
2022-11-27T04:03:13.835Z,6.90
2022-11-27T04:04:14.229Z,7.10
2022-11-27T04:05:13.204Z,7.20
2022-11-27T04:06:13.522Z,7.00
2022-11-27T04:07:13.756Z,7.00
2022-11-27T04:08:13.838Z,7.20
2022-11-27T04:09:14.118Z,7.40
2022-11-27T04:10:13.283Z,7.20
2022-11-27T04:11:13.262Z,7.30
2022-11-27T04:12:13.226Z,7.30
2022-11-27T04:13:13.364Z,7.40
2022-11-27T04:14:13.637Z,7.50
2022-11-27T04:15:14.044Z,7.40
2022-11-27T04:16:18.112Z,7.40
2022-11-27T04:17:13.525Z,7.20
2022-11-27T04:18:13.501Z,7.60
2022-11-27T04:19:13.479Z,7.60
2022-11-27T04:20:13.822Z,7.50
2022-11-27T04:21:13.829Z,7.60
2022-11-27T04:22:13.712Z,7.40
2022-11-27T04:23:13.876Z,7.60
2022-11-27T04:24:13.828Z,7.50
2022-11-27T04:25:13.799Z,7.50
2022-11-27T04:26:13.886Z,7.60
2022-11-27T04:27:12.845Z,7.30
2022-11-27T04:28:13.883Z,7.30
2022-11-27T04:29:13.795Z,7.60
2022-11-27T04:30:13.952Z,7.70
2022-11-27T04:31:13.121Z,7.70
2022-11-27T04:32:13.101Z,7.90
2022-11-27T04:33:13.033Z,7.60
2022-11-27T04:34:13.416Z,7.50
2022-11-27T04:35:13.346Z,7.50
2022-11-27T04:36:13.503Z,7.60
2022-11-27T04:37:23.835Z,7.70
2022-11-27T04:38:14.094Z,7.70
2022-11-27T04:39:13.147Z,7.60
2022-11-27T04:40:13.255Z,7.50
2022-11-27T04:41:13.310Z,7.50
2022-11-27T04:42:13.468Z,7.40
2022-11-27T04:43:13.712Z,7.70
2022-11-27T04:44:13.689Z,7.70
2022-11-27T04:45:13.584Z,7.60
2022-11-27T04:46:13.677Z,7.60
2022-11-27T04:47:13.701Z,7.50
2022-11-27T04:48:14.262Z,7.50
2022-11-27T04:49:13.195Z,7.40
2022-11-27T04:50:13.387Z,7.40
2022-11-27T04:51:13.238Z,7.60
2022-11-27T04:52:13.154Z,7.80
2022-11-27T04:53:13.157Z,7.60
2022-11-27T04:54:13.231Z,7.70
2022-11-27T04:55:13.297Z,7.40
2022-11-27T04:56:13.457Z,7.20
2022-11-27T04:57:13.324Z,7.50
2022-11-27T04:58:13.251Z,7.80
2022-11-27T04:59:13.061Z,7.90
2022-11-27T05:00:13.112Z,7.70
2022-11-27T05:01:13.166Z,7.40
2022-11-27T05:02:13.144Z,7.40
2022-11-27T05:03:13.261Z,7.50
2022-11-27T05:04:13.670Z,7.90
2022-11-27T05:05:13.600Z,7.70
2022-11-27T05:06:13.512Z,8.00
2022-11-27T05:07:13.700Z,7.50
2022-11-27T05:08:13.652Z,7.00
2022-11-27T05:09:13.739Z,6.90
2022-11-27T05:10:13.724Z,7.00
2022-11-27T05:11:13.636Z,7.40
2022-11-27T05:12:13.532Z,6.90
2022-11-27T05:13:13.596Z,6.90
2022-11-27T05:14:13.621Z,6.80
2022-11-27T05:15:13.794Z,7.00
2022-11-27T05:16:13.915Z,6.70
2022-11-27T05:17:13.168Z,6.90
2022-11-27T05:18:12.990Z,6.90
2022-11-27T05:19:12.902Z,6.80
2022-11-27T05:20:12.957Z,6.90
2022-11-27T05:21:13.329Z,6.80
2022-11-27T05:22:13.665Z,7.00
2022-11-27T05:23:13.620Z,7.10
2022-11-27T05:24:13.561Z,7.10
2022-11-27T05:25:13.776Z,7.00
2022-11-27T05:26:13.738Z,7.00
2022-11-27T05:27:13.729Z,6.90
2022-11-27T05:28:13.591Z,7.00
2022-11-27T05:29:13.923Z,6.90
2022-11-27T05:30:12.971Z,6.90
2022-11-27T05:31:12.884Z,7.00
2022-11-27T05:32:12.967Z,7.30
2022-11-27T05:33:13.135Z,7.70
2022-11-27T05:34:13.061Z,6.90
2022-11-27T05:35:12.997Z,6.90
2022-11-27T05:36:12.924Z,6.90
2022-11-27T05:37:17.895Z,7.00
2022-11-27T05:38:13.327Z,7.10
2022-11-27T05:39:13.261Z,6.90
2022-11-27T05:40:13.370Z,7.00
2022-11-27T05:41:13.444Z,6.90
2022-11-27T05:42:13.378Z,7.00
2022-11-27T05:43:13.209Z,6.90
2022-11-27T05:44:13.463Z,7.10
2022-11-27T05:45:13.337Z,7.40
2022-11-27T05:46:13.267Z,7.60
2022-11-27T05:47:13.165Z,7.70
2022-11-27T05:48:13.089Z,7.60
2022-11-27T05:49:13.021Z,7.80
2022-11-27T05:50:13.053Z,7.60
2022-11-27T05:51:13.050Z,7.70
2022-11-27T05:52:12.986Z,7.90
2022-11-27T05:53:13.018Z,7.90
2022-11-27T05:54:12.899Z,7.90
2022-11-27T05:55:13.023Z,7.80
2022-11-27T05:56:12.918Z,7.70
2022-11-27T05:57:13.108Z,7.70
2022-11-27T05:58:13.231Z,7.80
2022-11-27T05:59:13.229Z,8.20
2022-11-27T06:00:13.255Z,7.90
2022-11-27T06:01:13.468Z,7.70
2022-11-27T06:02:20.026Z,7.80
2022-11-27T06:03:14.016Z,7.80
2022-11-27T06:04:12.937Z,7.80
2022-11-27T06:05:13.145Z,7.80
2022-11-27T06:06:12.976Z,7.80
2022-11-27T06:07:12.952Z,7.80
2022-11-27T06:08:13.184Z,7.90
2022-11-27T06:09:13.680Z,7.90
2022-11-27T06:10:14.227Z,8.00
2022-11-27T06:11:13.152Z,7.90
2022-11-27T06:12:13.100Z,7.80
2022-11-27T06:13:12.951Z,8.00
2022-11-27T06:14:12.906Z,7.90
2022-11-27T06:15:12.912Z,8.00
2022-11-27T06:16:13.046Z,8.20
2022-11-27T06:17:13.474Z,8.00
2022-11-27T06:18:13.501Z,8.00
2022-11-27T06:19:13.414Z,8.40
2022-11-27T06:20:13.396Z,8.10
2022-11-27T06:21:13.902Z,8.00
2022-11-27T06:22:13.017Z,8.00
2022-11-27T06:23:12.973Z,8.10
2022-11-27T06:24:13.120Z,8.20
2022-11-27T06:25:13.284Z,8.40
2022-11-27T06:26:13.128Z,8.20
2022-11-27T06:27:13.063Z,8.00
2022-11-27T06:28:13.141Z,8.10
2022-11-27T06:29:13.069Z,8.40
2022-11-27T06:30:12.984Z,8.40
2022-11-27T06:31:17.795Z,8.30
2022-11-27T06:32:13.426Z,8.40
2022-11-27T06:33:13.882Z,8.50
2022-11-27T06:34:13.947Z,8.30
2022-11-27T06:35:12.853Z,8.20
2022-11-27T06:36:13.726Z,8.10
2022-11-27T06:37:13.765Z,8.40
2022-11-27T06:38:14.020Z,8.60
2022-11-27T06:39:12.897Z,8.50
2022-11-27T06:40:12.980Z,8.70
2022-11-27T06:41:12.969Z,8.30
2022-11-27T06:42:12.963Z,8.40
2022-11-27T06:43:12.922Z,8.30
2022-11-27T06:44:12.885Z,8.20
2022-11-27T06:45:13.764Z,8.60
2022-11-27T06:46:16.052Z,8.60
2022-11-27T06:47:13.421Z,8.80
2022-11-27T06:48:13.670Z,8.60
2022-11-27T06:49:13.681Z,8.70
2022-11-27T06:50:13.598Z,8.60
2022-11-27T06:51:13.605Z,8.50
2022-11-27T06:52:13.785Z,8.30
2022-11-27T06:53:13.730Z,8.60
2022-11-27T06:54:13.829Z,8.40
2022-11-27T06:55:13.725Z,8.40
2022-11-27T06:56:13.815Z,8.60
2022-11-27T06:57:13.908Z,8.60
2022-11-27T06:58:13.274Z,8.50
2022-11-27T06:59:13.189Z,8.10
2022-11-27T07:00:13.222Z,8.40
2022-11-27T07:01:13.243Z,8.90
2022-11-27T07:02:13.640Z,8.70
2022-11-27T07:03:13.807Z,8.80
2022-11-27T07:04:13.986Z,8.60
2022-11-27T07:05:13.044Z,8.60
2022-11-27T07:06:13.189Z,8.10
2022-11-27T07:07:13.570Z,8.80
2022-11-27T07:08:13.703Z,8.60
2022-11-27T07:09:13.843Z,8.70
2022-11-27T07:10:13.650Z,8.70
2022-11-27T07:11:13.844Z,9.00
2022-11-27T07:12:13.867Z,8.80
2022-11-27T07:13:14.085Z,8.50
2022-11-27T07:14:12.975Z,8.40
2022-11-27T07:15:12.905Z,8.50
2022-11-27T07:16:13.110Z,8.60
2022-11-27T07:17:13.080Z,8.60
2022-11-27T07:18:13.703Z,8.60
2022-11-27T07:19:13.997Z,8.70
2022-11-27T07:20:13.107Z,8.80
2022-11-27T07:21:13.334Z,8.80
2022-11-27T07:22:13.223Z,9.00
2022-11-27T07:23:13.238Z,8.50
2022-11-27T07:24:13.393Z,8.50
2022-11-27T07:25:13.742Z,8.40
2022-11-27T07:26:18.836Z,8.70
2022-11-27T07:27:13.758Z,8.90
2022-11-27T07:28:18.665Z,9.40
2022-11-27T07:29:14.287Z,9.30
2022-11-27T07:30:13.247Z,9.30
2022-11-27T07:31:13.169Z,9.60
2022-11-27T07:32:13.364Z,9.30
2022-11-27T07:33:13.487Z,9.40
2022-11-27T07:34:17.100Z,9.40
2022-11-27T07:35:13.007Z,9.30
2022-11-27T07:36:13.326Z,9.40
2022-11-27T07:37:13.762Z,9.30
2022-11-27T07:38:13.564Z,9.00
2022-11-27T07:39:13.355Z,8.80
2022-11-27T07:40:14.848Z,9.10
2022-11-27T07:41:13.030Z,8.90
2022-11-27T07:43:13.523Z,9.40
2022-11-27T07:44:13.390Z,9.20
2022-11-27T07:45:13.613Z,9.40
2022-11-27T07:46:13.713Z,8.80
2022-11-27T07:47:13.819Z,9.20
2022-11-27T07:48:13.724Z,9.10
2022-11-27T07:49:13.601Z,8.80
2022-11-27T07:50:13.962Z,8.90
2022-11-27T07:51:12.889Z,9.20
2022-11-27T07:52:14.564Z,9.10
2022-11-27T07:53:13.537Z,9.50
2022-11-27T07:54:13.529Z,9.50
2022-11-27T07:55:13.515Z,9.60
2022-11-27T07:56:14.705Z,9.60
2022-11-27T07:57:13.864Z,9.50
2022-11-27T07:58:13.919Z,9.10
2022-11-27T07:59:12.969Z,9.40
2022-11-27T08:00:12.821Z,9.40
2022-11-27T08:01:14.055Z,9.40
2022-11-27T08:02:13.411Z,9.50
2022-11-27T08:03:13.541Z,9.90
2022-11-27T08:04:13.518Z,10.10
2022-11-27T08:05:13.804Z,9.90
2022-11-27T08:06:13.688Z,9.70
2022-11-27T08:07:13.768Z,9.70
2022-11-27T08:08:13.736Z,9.70
2022-11-27T08:09:22.913Z,9.30
2022-11-27T08:10:12.940Z,9.40
2022-11-27T08:11:12.844Z,9.80
2022-11-27T08:12:13.761Z,10.00
2022-11-27T08:13:13.588Z,9.90
2022-11-27T08:14:13.860Z,9.80
2022-11-27T08:15:13.821Z,9.60
2022-11-27T08:16:18.848Z,10.00
2022-11-27T08:17:12.870Z,9.80
2022-11-27T08:18:13.879Z,9.80
2022-11-27T08:19:12.821Z,10.10
2022-11-27T08:20:14.003Z,9.90
2022-11-27T08:21:12.859Z,9.50
2022-11-27T08:22:13.777Z,9.70
2022-11-27T08:23:14.043Z,9.60
2022-11-27T08:24:13.302Z,9.80
2022-11-27T08:25:13.340Z,9.90
2022-11-27T08:26:13.346Z,10.10
2022-11-27T08:27:13.418Z,10.00
2022-11-27T08:28:13.557Z,9.80
2022-11-27T08:29:14.959Z,9.90
2022-11-27T08:30:12.792Z,9.90
2022-11-27T08:31:14.009Z,9.40
2022-11-27T08:32:13.091Z,9.90
2022-11-27T08:33:12.985Z,10.20
2022-11-27T08:34:12.861Z,10.00
2022-11-27T08:35:18.842Z,10.10
2022-11-27T08:36:17.863Z,10.10
2022-11-27T08:37:13.947Z,10.40
2022-11-27T08:38:13.199Z,10.10
2022-11-27T08:39:13.415Z,10.10
2022-11-27T08:40:39.690Z,10.40
2022-11-27T08:41:35.828Z,10.20
2022-11-27T08:42:23.422Z,10.20
2022-11-27T08:43:13.360Z,10.10
2022-11-27T08:44:13.261Z,10.60
2022-11-27T08:45:13.486Z,10.70
2022-11-27T08:46:13.628Z,10.40
2022-11-27T08:47:13.772Z,10.40
2022-11-27T08:48:14.309Z,10.70
2022-11-27T08:49:13.354Z,10.60
2022-11-27T08:50:13.809Z,10.30
2022-11-27T08:51:14.037Z,10.40
2022-11-27T08:52:13.217Z,9.60
2022-11-27T08:53:13.376Z,9.90
2022-11-27T08:54:13.494Z,10.60
2022-11-27T08:55:13.571Z,10.80
2022-11-27T08:56:13.528Z,10.50
2022-11-27T08:57:13.477Z,10.30
2022-11-27T08:58:13.536Z,10.10
2022-11-27T08:59:13.626Z,9.70
2022-11-27T09:00:28.905Z,9.80
2022-11-27T09:01:13.175Z,9.70
2022-11-27T09:03:13.164Z,9.50
2022-11-27T09:04:17.227Z,9.40
2022-11-27T09:05:13.265Z,9.60
2022-11-27T09:06:13.407Z,10.00
2022-11-27T09:08:13.260Z,9.70
2022-11-27T09:09:13.138Z,10.10
2022-11-27T09:10:22.216Z,9.80
2022-11-27T09:11:13.267Z,9.80
2022-11-27T09:12:19.053Z,9.70
2022-11-27T09:13:13.097Z,9.90
2022-11-27T09:14:13.184Z,10.00
2022-11-27T09:15:13.103Z,9.90
2022-11-27T09:16:47.685Z,10.20
2022-11-27T09:17:13.870Z,10.20
2022-11-27T09:18:13.967Z,10.20
2022-11-27T09:19:13.139Z,10.30
2022-11-27T09:20:19.224Z,9.50
2022-11-27T09:21:20.616Z,9.60
2022-11-27T09:22:31.146Z,9.90
2022-11-27T09:23:14.628Z,9.90
2022-11-27T09:24:14.562Z,9.90
2022-11-27T09:25:24.927Z,10.10
2022-11-27T09:26:14.075Z,10.00
2022-11-27T09:27:13.266Z,10.20
2022-11-27T09:28:13.573Z,10.00
2022-11-27T09:29:13.705Z,9.90
2022-11-27T09:30:13.874Z,9.90
2022-11-27T09:31:14.101Z,10.10
2022-11-27T09:32:18.426Z,10.00
2022-11-27T09:33:14.905Z,9.90
2022-11-27T09:34:13.336Z,9.90
2022-11-27T09:35:13.344Z,9.90
2022-11-27T09:36:13.546Z,10.20
2022-11-27T09:37:13.985Z,9.90
2022-11-27T09:38:13.275Z,9.90
2022-11-27T09:39:13.359Z,10.00
2022-11-27T09:40:13.347Z,10.20
2022-11-27T09:41:13.669Z,10.10
2022-11-27T09:42:23.737Z,10.20
2022-11-27T09:43:13.932Z,10.20
2022-11-27T09:44:13.167Z,10.20
2022-11-27T09:45:13.028Z,10.30
2022-11-27T09:46:13.249Z,10.30
2022-11-27T09:47:43.386Z,10.00
2022-11-27T09:48:13.698Z,9.90
2022-11-27T09:49:13.899Z,9.80
2022-11-27T09:50:12.716Z,9.90
2022-11-27T09:51:13.895Z,10.00
2022-11-27T09:52:18.185Z,9.80
2022-11-27T09:53:13.185Z,9.90
2022-11-27T09:54:13.466Z,9.90
2022-11-27T09:55:13.579Z,10.00
2022-11-27T09:56:13.616Z,10.20
2022-11-27T09:57:13.520Z,10.20
2022-11-27T09:58:13.651Z,9.90
2022-11-27T09:59:13.625Z,9.70
2022-11-27T10:00:13.761Z,9.80
2022-11-27T10:01:14.065Z,10.00
2022-11-27T10:02:13.271Z,9.80
2022-11-27T10:03:13.668Z,9.90
2022-11-27T10:04:13.694Z,9.80
2022-11-27T10:05:31.470Z,9.90
2022-11-27T10:06:13.688Z,9.70
2022-11-27T10:08:13.814Z,9.70
2022-11-27T10:09:13.170Z,10.00
2022-11-27T10:10:13.128Z,10.00
2022-11-27T10:11:13.383Z,10.10
2022-11-27T10:12:33.475Z,10.30
2022-11-27T10:13:13.738Z,10.00
2022-11-27T10:14:14.109Z,9.90
2022-11-27T10:15:19.925Z,10.00
2022-11-27T10:18:13.025Z,10.50
2022-11-27T10:19:13.391Z,10.40
2022-11-27T10:20:42.867Z,10.40
2022-11-27T10:21:13.779Z,10.20
2022-11-27T10:22:16.594Z,10.30
2022-11-27T10:23:13.702Z,10.50
2022-11-27T10:24:13.573Z,10.60
2022-11-27T10:25:38.529Z,10.20
2022-11-27T10:26:21.687Z,10.10
2022-11-27T10:27:13.595Z,10.20
2022-11-27T10:28:13.515Z,10.30
2022-11-27T10:29:13.399Z,10.60
2022-11-27T10:30:13.399Z,10.20
2022-11-27T10:31:58.516Z,10.30
2022-11-27T10:32:55.480Z,10.10
2022-11-27T10:33:13.439Z,10.30
2022-11-27T10:34:13.645Z,10.70
2022-11-27T10:35:13.629Z,10.90
2022-11-27T10:36:13.435Z,10.30
2022-11-27T10:37:13.331Z,10.80
2022-11-27T10:38:13.337Z,10.80
2022-11-27T10:39:13.446Z,11.10
2022-11-27T10:40:13.565Z,10.80
2022-11-27T10:41:34.373Z,11.00
2022-11-27T10:42:12.936Z,11.10
2022-11-27T10:43:13.292Z,10.70
2022-11-27T10:44:13.512Z,10.50
2022-11-27T10:45:13.457Z,10.60
2022-11-27T10:46:13.712Z,10.60
2022-11-27T10:47:13.872Z,10.50
2022-11-27T10:48:13.857Z,10.80
2022-11-27T10:49:24.514Z,10.80
2022-11-27T10:51:13.572Z,11.00
2022-11-27T10:52:13.943Z,10.60
2022-11-27T10:53:13.059Z,10.60
2022-11-27T10:54:14.553Z,10.60
2022-11-27T10:55:13.367Z,10.60
2022-11-27T10:56:13.243Z,10.60
2022-11-27T10:57:13.185Z,10.80
2022-11-27T10:58:13.101Z,11.00
2022-11-27T10:59:13.002Z,10.50
2022-11-27T11:00:12.962Z,10.80
2022-11-27T11:01:12.974Z,10.70
2022-11-27T11:02:12.993Z,10.60
2022-11-27T11:03:13.059Z,10.90
2022-11-27T11:04:31.378Z,11.00
2022-11-27T11:05:35.085Z,11.10
2022-11-27T11:07:13.127Z,11.10
2022-11-27T11:08:13.116Z,11.00
2022-11-27T11:09:13.037Z,11.00
2022-11-27T11:10:13.012Z,11.10
2022-11-27T11:11:13.009Z,10.90
2022-11-27T11:12:12.945Z,10.90
2022-11-27T11:13:12.845Z,10.80
2022-11-27T11:14:18.761Z,10.90
2022-11-27T11:15:13.680Z,10.90
2022-11-27T11:16:14.908Z,10.70
2022-11-27T11:17:13.560Z,10.90
2022-11-27T11:18:13.742Z,10.90
2022-11-27T11:19:13.607Z,10.80
2022-11-27T11:20:13.667Z,10.90
2022-11-27T11:21:13.660Z,10.70
2022-11-27T11:22:14.853Z,10.80
2022-11-27T11:23:12.913Z,11.00
2022-11-27T11:24:12.938Z,10.80
2022-11-27T11:25:13.029Z,10.80
2022-11-27T11:26:12.977Z,11.10
2022-11-27T11:27:13.041Z,10.80
2022-11-27T11:28:13.144Z,11.00
2022-11-27T11:29:12.962Z,10.80
2022-11-27T11:30:13.050Z,11.00
2022-11-27T11:31:13.461Z,11.10
2022-11-27T11:32:13.674Z,11.10
2022-11-27T11:33:14.158Z,10.70
2022-11-27T11:34:13.061Z,10.70
2022-11-27T11:35:12.929Z,11.10
2022-11-27T11:36:12.887Z,11.20
2022-11-27T11:37:13.762Z,11.10
2022-11-27T11:38:13.626Z,11.10
2022-11-27T11:39:13.686Z,11.00
2022-11-27T11:40:16.156Z,11.10
2022-11-27T11:41:13.666Z,11.20
2022-11-27T11:42:13.618Z,11.20
2022-11-27T11:43:13.591Z,10.90
2022-11-27T11:44:14.491Z,11.20
2022-11-27T11:45:13.571Z,11.00
2022-11-27T11:46:13.602Z,11.00
2022-11-27T11:47:13.677Z,11.00
2022-11-27T11:48:13.613Z,11.10
2022-11-27T11:49:13.497Z,11.20
2022-11-27T11:50:13.430Z,11.30
2022-11-27T11:51:13.557Z,11.40
2022-11-27T11:52:13.711Z,10.90
2022-11-27T11:53:13.772Z,10.90
2022-11-27T11:54:13.696Z,11.00
2022-11-27T11:55:13.886Z,11.10
2022-11-27T11:56:13.887Z,11.20
2022-11-27T11:57:13.811Z,11.20
2022-11-27T11:58:14.100Z,11.20
2022-11-27T11:59:13.124Z,11.40
2022-11-27T12:00:13.284Z,11.40
2022-11-27T12:01:26.410Z,11.30
2022-11-27T12:02:13.152Z,11.30
2022-11-27T12:03:13.098Z,11.20
2022-11-27T12:04:13.255Z,11.40
2022-11-27T12:05:13.225Z,11.50
2022-11-27T12:06:13.307Z,11.80
2022-11-27T12:07:13.269Z,11.70
2022-11-27T12:08:13.259Z,11.80
2022-11-27T12:09:13.189Z,11.70
2022-11-27T12:10:14.052Z,11.90
2022-11-27T12:11:13.004Z,11.40
2022-11-27T12:12:13.145Z,11.40
2022-11-27T12:13:13.110Z,12.00
2022-11-27T12:14:13.251Z,12.30
2022-11-27T12:15:13.629Z,12.20
2022-11-27T12:16:13.648Z,11.90
2022-11-27T12:17:13.837Z,11.80
2022-11-27T12:18:14.121Z,11.60
2022-11-27T12:19:13.253Z,11.80
2022-11-27T12:20:13.508Z,11.90
2022-11-27T12:21:13.705Z,12.10
2022-11-27T12:22:13.912Z,12.50
2022-11-27T12:23:12.862Z,12.10
2022-11-27T12:24:14.143Z,12.20
2022-11-27T12:25:13.020Z,12.30
2022-11-27T12:26:12.933Z,11.90
2022-11-27T12:27:13.311Z,11.80
2022-11-27T12:28:13.331Z,12.10
2022-11-27T12:29:13.240Z,12.20
2022-11-27T12:30:13.212Z,12.10
2022-11-27T12:31:13.465Z,12.50
2022-11-27T12:32:13.773Z,12.80
2022-11-27T12:33:14.482Z,12.90
2022-11-27T12:34:13.446Z,12.50
2022-11-27T12:35:13.600Z,12.50
2022-11-27T12:36:13.833Z,12.50
2022-11-27T12:37:14.320Z,12.40
2022-11-27T12:38:13.326Z,12.20
2022-11-27T12:39:13.196Z,12.40
2022-11-27T12:40:13.469Z,12.70
2022-11-27T12:41:13.654Z,12.80
2022-11-27T12:42:16.643Z,12.50
2022-11-27T12:43:13.091Z,12.40
2022-11-27T12:44:12.993Z,12.30
2022-11-27T12:45:12.893Z,12.50
2022-11-27T12:46:12.854Z,12.70
2022-11-27T12:47:12.839Z,12.60
2022-11-27T12:48:13.692Z,11.90
2022-11-27T12:49:13.516Z,11.70
2022-11-27T12:50:18.524Z,11.70
2022-11-27T12:51:13.918Z,11.80
2022-11-27T12:52:13.178Z,11.80
2022-11-27T12:53:13.142Z,11.50
2022-11-27T12:54:13.155Z,11.50
2022-11-27T12:55:13.227Z,12.00
2022-11-27T12:56:13.073Z,11.60
2022-11-27T12:57:13.088Z,11.80
2022-11-27T12:58:13.115Z,11.90
2022-11-27T12:59:13.030Z,12.20
2022-11-27T13:00:12.915Z,12.00
2022-11-27T13:01:15.577Z,11.90
2022-11-27T13:02:13.674Z,11.70
2022-11-27T13:03:13.840Z,11.70
2022-11-27T13:04:13.934Z,11.70
2022-11-27T13:05:12.755Z,11.70
2022-11-27T13:06:14.121Z,11.50
2022-11-27T13:07:13.356Z,11.30
2022-11-27T13:08:13.664Z,11.70
2022-11-27T13:09:13.580Z,11.70
2022-11-27T13:10:13.872Z,11.60
2022-11-27T13:11:14.514Z,11.60
2022-11-27T13:12:13.745Z,11.50
2022-11-27T13:13:13.645Z,11.50
2022-11-27T13:14:13.703Z,11.50
2022-11-27T13:15:13.943Z,11.30
2022-11-27T13:16:12.886Z,11.60
2022-11-27T13:17:13.073Z,11.40
2022-11-27T13:18:13.063Z,11.40
2022-11-27T13:19:13.061Z,11.70